Roth, North Dakota
Current Conditions -  °F | °C
As of 10:33 PM on Thursday 18 Dec 2014 (Local Time) from KMIB Reporting Station
Haze Haze  
Wind Chill: -5°   Ceiling: 500
Heat Index: -5°   Visibility: 6mi
Dew Point: -5°   Wind: 3mph
Humidity: 100%   Direction: 130°SE
Pressure: 29.96"   Gusts: NA
Location:  48.9505°N, 100.734°W
Report Text: KMIB 190433Z AUTO 13003KT 6SM R11/5000FT BR OVC005 M05/M05 A2996 RMK AO2 $
Loading
Personal Weather Stations






























Interactive Weather Map New forecast layout! Learn more

10-Day Weather Forecast

Advertisements
Track Severe Weather on mobile